sensor_id;sensor_type;location;lat;lon;timestamp;P1;durP1;ratioP1;P2;durP2;ratioP2
22005;SDS011;11167;46.988;15.470;2023-04-10T00:01:40;3.25;;;2.95;;
22005;SDS011;11167;46.988;15.470;2023-04-10T00:03:41;4.33;;;3.22;;
22005;SDS011;11167;46.988;15.470;2023-04-10T00:05:42;3.75;;;2.98;;
22005;SDS011;11167;46.988;15.470;2023-04-10T00:07:43;4.50;;;3.33;;
22005;SDS011;11167;46.988;15.470;2023-04-10T00:09:44;4.08;;;3.37;;
22005;SDS011;11167;46.988;15.470;2023-04-10T00:11:45;3.95;;;3.40;;
22005;SDS011;11167;46.988;15.470;2023-04-10T00:13:46;3.87;;;3.12;;
22005;SDS011;11167;46.988;15.470;2023-04-10T00:15:47;4.10;;;3.20;;
22005;SDS011;11167;46.988;15.470;2023-04-10T00:17:50;4.47;;;3.52;;
22005;SDS011;11167;46.988;15.470;2023-04-10T00:19:53;4.58;;;3.25;;
22005;SDS011;11167;46.988;15.470;2023-04-10T00:21:54;4.15;;;3.40;;
22005;SDS011;11167;46.988;15.470;2023-04-10T00:23:57;4.85;;;3.72;;
22005;SDS011;11167;46.988;15.470;2023-04-10T00:25:58;3.83;;;3.42;;
22005;SDS011;11167;46.988;15.470;2023-04-10T00:27:59;4.28;;;3.50;;
22005;SDS011;11167;46.988;15.470;2023-04-10T00:30:00;3.92;;;3.45;;
22005;SDS011;11167;46.988;15.470;2023-04-10T00:32:02;3.72;;;3.08;;
22005;SDS011;11167;46.988;15.470;2023-04-10T00:34:03;3.72;;;3.12;;
22005;SDS011;11167;46.988;15.470;2023-04-10T00:36:06;4.80;;;3.37;;
22005;SDS011;11167;46.988;15.470;2023-04-10T00:38:07;5.03;;;2.98;;
22005;SDS011;11167;46.988;15.470;2023-04-10T00:40:08;4.17;;;3.30;;
22005;SDS011;11167;46.988;15.470;2023-04-10T00:42:10;4.25;;;3.40;;
22005;SDS011;11167;46.988;15.470;2023-04-10T00:44:11;3.70;;;3.30;;
22005;SDS011;11167;46.988;15.470;2023-04-10T00:46:12;3.95;;;3.27;;
22005;SDS011;11167;46.988;15.470;2023-04-10T00:48:13;4.22;;;3.35;;
22005;SDS011;11167;46.988;15.470;2023-04-10T00:50:15;4.12;;;3.37;;
22005;SDS011;11167;46.988;15.470;2023-04-10T00:52:16;4.22;;;3.35;;
22005;SDS011;11167;46.988;15.470;2023-04-10T00:54:18;4.17;;;3.58;;
22005;SDS011;11167;46.988;15.470;2023-04-10T00:56:19;4.85;;;3.50;;
22005;SDS011;11167;46.988;15.470;2023-04-10T00:58:21;4.33;;;3.02;;
22005;SDS011;11167;46.988;15.470;2023-04-10T01:00:22;5.50;;;3.40;;
22005;SDS011;11167;46.988;15.470;2023-04-10T01:02:23;4.37;;;3.50;;
22005;SDS011;11167;46.988;15.470;2023-04-10T01:04:24;4.37;;;3.60;;
22005;SDS011;11167;46.988;15.470;2023-04-10T01:06:44;6.25;;;3.60;;
22005;SDS011;11167;46.988;15.470;2023-04-10T01:09:04;4.33;;;3.60;;
22005;SDS011;11167;46.988;15.470;2023-04-10T01:15:52;4.33;;;3.25;;
22005;SDS011;11167;46.988;15.470;2023-04-10T01:18:25;4.03;;;3.33;;
22005;SDS011;11167;46.988;15.470;2023-04-10T01:20:29;3.58;;;3.05;;
22005;SDS011;11167;46.988;15.470;2023-04-10T01:22:34;4.12;;;3.30;;
22005;SDS011;11167;46.988;15.470;2023-04-10T01:29:22;4.25;;;3.25;;
22005;SDS011;11167;46.988;15.470;2023-04-10T01:34:02;4.12;;;3.42;;
22005;SDS011;11167;46.988;15.470;2023-04-10T01:36:02;4.37;;;3.17;;
22005;SDS011;11167;46.988;15.470;2023-04-10T01:38:05;4.17;;;3.52;;
22005;SDS011;11167;46.988;15.470;2023-04-10T01:40:13;4.37;;;3.30;;
22005;SDS011;11167;46.988;15.470;2023-04-10T01:42:16;3.50;;;3.00;;
22005;SDS011;11167;46.988;15.470;2023-04-10T01:44:24;3.62;;;3.00;;
22005;SDS011;11167;46.988;15.470;2023-04-10T01:46:25;3.77;;;3.08;;
22005;SDS011;11167;46.988;15.470;2023-04-10T01:48:27;3.45;;;2.92;;
22005;SDS011;11167;46.988;15.470;2023-04-10T01:50:29;3.92;;;3.37;;
22005;SDS011;11167;46.988;15.470;2023-04-10T01:52:32;3.75;;;2.92;;
22005;SDS011;11167;46.988;15.470;2023-04-10T01:54:35;3.55;;;2.80;;
22005;SDS011;11167;46.988;15.470;2023-04-10T01:56:36;3.17;;;2.80;;
22005;SDS011;11167;46.988;15.470;2023-04-10T01:58:38;4.40;;;3.12;;
22005;SDS011;11167;46.988;15.470;2023-04-10T02:00:40;3.98;;;3.17;;
22005;SDS011;11167;46.988;15.470;2023-04-10T02:02:42;3.12;;;2.80;;
22005;SDS011;11167;46.988;15.470;2023-04-10T02:04:45;3.45;;;2.90;;
22005;SDS011;11167;46.988;15.470;2023-04-10T02:06:50;3.12;;;2.72;;
22005;SDS011;11167;46.988;15.470;2023-04-10T02:09:02;3.05;;;2.72;;
22005;SDS011;11167;46.988;15.470;2023-04-10T02:11:14;3.08;;;2.77;;
22005;SDS011;11167;46.988;15.470;2023-04-10T02:13:20;3.33;;;2.90;;
22005;SDS011;11167;46.988;15.470;2023-04-10T02:15:23;3.58;;;3.08;;
22005;SDS011;11167;46.988;15.470;2023-04-10T02:17:28;3.58;;;2.60;;
22005;SDS011;11167;46.988;15.470;2023-04-10T02:19:30;3.27;;;2.70;;
22005;SDS011;11167;46.988;15.470;2023-04-10T02:21:32;3.42;;;2.80;;
22005;SDS011;11167;46.988;15.470;2023-04-10T02:23:34;3.65;;;3.02;;
22005;SDS011;11167;46.988;15.470;2023-04-10T02:25:36;2.60;;;2.40;;
22005;SDS011;11167;46.988;15.470;2023-04-10T02:27:38;4.67;;;2.80;;
22005;SDS011;11167;46.988;15.470;2023-04-10T02:29:40;3.60;;;2.83;;
22005;SDS011;11167;46.988;15.470;2023-04-10T02:31:40;3.95;;;2.72;;
22005;SDS011;11167;46.988;15.470;2023-04-10T02:33:42;3.92;;;2.62;;
22005;SDS011;11167;46.988;15.470;2023-04-10T02:35:43;3.40;;;3.00;;
22005;SDS011;11167;46.988;15.470;2023-04-10T02:37:44;3.25;;;2.83;;
22005;SDS011;11167;46.988;15.470;2023-04-10T02:39:47;3.00;;;2.70;;
22005;SDS011;11167;46.988;15.470;2023-04-10T02:41:48;3.08;;;2.70;;
22005;SDS011;11167;46.988;15.470;2023-04-10T02:43:49;3.15;;;2.70;;
22005;SDS011;11167;46.988;15.470;2023-04-10T02:45:51;2.90;;;2.52;;
22005;SDS011;11167;46.988;15.470;2023-04-10T02:47:52;3.45;;;2.80;;
22005;SDS011;11167;46.988;15.470;2023-04-10T02:49:54;3.47;;;2.90;;
22005;SDS011;11167;46.988;15.470;2023-04-10T02:51:56;2.98;;;2.60;;
22005;SDS011;11167;46.988;15.470;2023-04-10T02:53:57;3.10;;;2.77;;
22005;SDS011;11167;46.988;15.470;2023-04-10T02:55:58;3.98;;;3.20;;
22005;SDS011;11167;46.988;15.470;2023-04-10T02:57:59;3.85;;;2.85;;
22005;SDS011;11167;46.988;15.470;2023-04-10T03:00:01;3.85;;;2.90;;
22005;SDS011;11167;46.988;15.470;2023-04-10T03:02:04;2.98;;;2.67;;
22005;SDS011;11167;46.988;15.470;2023-04-10T03:04:05;3.37;;;2.77;;
22005;SDS011;11167;46.988;15.470;2023-04-10T03:06:07;3.52;;;2.95;;
22005;SDS011;11167;46.988;15.470;2023-04-10T03:08:09;3.15;;;2.80;;
22005;SDS011;11167;46.988;15.470;2023-04-10T03:10:11;3.27;;;2.87;;
22005;SDS011;11167;46.988;15.470;2023-04-10T03:12:12;3.08;;;2.70;;
22005;SDS011;11167;46.988;15.470;2023-04-10T03:14:13;3.62;;;3.10;;
22005;SDS011;11167;46.988;15.470;2023-04-10T03:16:15;4.15;;;3.22;;
22005;SDS011;11167;46.988;15.470;2023-04-10T03:18:18;3.85;;;3.02;;
22005;SDS011;11167;46.988;15.470;2023-04-10T03:20:19;3.72;;;3.05;;
22005;SDS011;11167;46.988;15.470;2023-04-10T03:22:20;4.08;;;2.92;;
22005;SDS011;11167;46.988;15.470;2023-04-10T03:24:21;3.20;;;2.90;;
22005;SDS011;11167;46.988;15.470;2023-04-10T03:26:22;3.62;;;3.20;;
22005;SDS011;11167;46.988;15.470;2023-04-10T03:28:23;3.67;;;2.77;;
22005;SDS011;11167;46.988;15.470;2023-04-10T03:30:24;3.22;;;2.80;;
22005;SDS011;11167;46.988;15.470;2023-04-10T03:32:25;3.10;;;2.80;;
22005;SDS011;11167;46.988;15.470;2023-04-10T03:34:27;2.90;;;2.60;;
22005;SDS011;11167;46.988;15.470;2023-04-10T03:36:28;4.17;;;3.42;;
22005;SDS011;11167;46.988;15.470;2023-04-10T03:38:30;3.35;;;3.05;;
22005;SDS011;11167;46.988;15.470;2023-04-10T03:40:31;3.75;;;3.08;;
22005;SDS011;11167;46.988;15.470;2023-04-10T03:42:34;3.30;;;3.00;;
22005;SDS011;11167;46.988;15.470;2023-04-10T03:44:36;3.30;;;3.00;;
22005;SDS011;11167;46.988;15.470;2023-04-10T03:46:37;3.12;;;2.83;;
22005;SDS011;11167;46.988;15.470;2023-04-10T03:48:38;4.53;;;2.67;;
22005;SDS011;11167;46.988;15.470;2023-04-10T03:50:40;2.87;;;2.60;;
22005;SDS011;11167;46.988;15.470;2023-04-10T03:55:02;4.12;;;3.15;;
22005;SDS011;11167;46.988;15.470;2023-04-10T03:57:03;3.58;;;3.05;;
22005;SDS011;11167;46.988;15.470;2023-04-10T03:59:05;3.60;;;3.22;;
22005;SDS011;11167;46.988;15.470;2023-04-10T04:01:06;3.67;;;3.10;;
22005;SDS011;11167;46.988;15.470;2023-04-10T04:03:07;3.33;;;3.02;;
22005;SDS011;11167;46.988;15.470;2023-04-10T04:05:08;2.83;;;2.58;;
22005;SDS011;11167;46.988;15.470;2023-04-10T04:07:09;3.65;;;2.80;;
22005;SDS011;11167;46.988;15.470;2023-04-10T04:09:11;3.50;;;2.85;;
22005;SDS011;11167;46.988;15.470;2023-04-10T04:11:12;3.55;;;2.70;;
22005;SDS011;11167;46.988;15.470;2023-04-10T04:13:13;2.60;;;2.40;;
22005;SDS011;11167;46.988;15.470;2023-04-10T04:15:14;3.02;;;2.50;;
22005;SDS011;11167;46.988;15.470;2023-04-10T04:17:15;2.45;;;2.25;;
22005;SDS011;11167;46.988;15.470;2023-04-10T04:19:17;2.35;;;2.15;;
22005;SDS011;11167;46.988;15.470;2023-04-10T04:21:18;2.75;;;2.40;;
22005;SDS011;11167;46.988;15.470;2023-04-10T04:23:19;2.55;;;2.35;;
22005;SDS011;11167;46.988;15.470;2023-04-10T04:25:20;2.37;;;2.17;;
22005;SDS011;11167;46.988;15.470;2023-04-10T04:27:23;2.98;;;2.37;;
22005;SDS011;11167;46.988;15.470;2023-04-10T04:29:24;2.58;;;2.30;;
22005;SDS011;11167;46.988;15.470;2023-04-10T04:31:25;2.12;;;1.92;;
22005;SDS011;11167;46.988;15.470;2023-04-10T04:33:28;2.27;;;2.00;;
22005;SDS011;11167;46.988;15.470;2023-04-10T04:35:29;2.22;;;2.02;;
22005;SDS011;11167;46.988;15.470;2023-04-10T04:37:30;2.50;;;2.27;;
22005;SDS011;11167;46.988;15.470;2023-04-10T04:39:32;2.40;;;2.05;;
22005;SDS011;11167;46.988;15.470;2023-04-10T04:41:32;2.35;;;1.98;;
22005;SDS011;11167;46.988;15.470;2023-04-10T04:43:33;2.40;;;2.20;;
22005;SDS011;11167;46.988;15.470;2023-04-10T04:45:35;2.30;;;2.10;;
22005;SDS011;11167;46.988;15.470;2023-04-10T04:47:37;2.90;;;2.50;;
22005;SDS011;11167;46.988;15.470;2023-04-10T04:49:38;2.40;;;2.20;;
22005;SDS011;11167;46.988;15.470;2023-04-10T04:51:39;2.58;;;1.95;;
22005;SDS011;11167;46.988;15.470;2023-04-10T04:53:40;3.55;;;2.20;;
22005;SDS011;11167;46.988;15.470;2023-04-10T04:55:41;2.25;;;2.05;;
22005;SDS011;11167;46.988;15.470;2023-04-10T04:57:42;2.30;;;2.10;;
22005;SDS011;11167;46.988;15.470;2023-04-10T04:59:43;2.17;;;1.95;;
22005;SDS011;11167;46.988;15.470;2023-04-10T05:01:45;2.42;;;2.20;;
22005;SDS011;11167;46.988;15.470;2023-04-10T05:03:46;2.25;;;2.05;;
22005;SDS011;11167;46.988;15.470;2023-04-10T05:05:47;2.20;;;2.00;;
22005;SDS011;11167;46.988;15.470;2023-04-10T05:07:48;2.05;;;1.85;;
22005;SDS011;11167;46.988;15.470;2023-04-10T05:09:49;2.45;;;2.25;;
22005;SDS011;11167;46.988;15.470;2023-04-10T05:11:50;2.60;;;2.20;;
22005;SDS011;11167;46.988;15.470;2023-04-10T05:13:53;2.30;;;2.10;;
22005;SDS011;11167;46.988;15.470;2023-04-10T05:15:54;2.20;;;2.00;;
22005;SDS011;11167;46.988;15.470;2023-04-10T05:17:55;2.20;;;1.80;;
22005;SDS011;11167;46.988;15.470;2023-04-10T05:19:56;2.25;;;2.05;;
22005;SDS011;11167;46.988;15.470;2023-04-10T05:21:57;2.37;;;2.02;;
22005;SDS011;11167;46.988;15.470;2023-04-10T05:23:58;2.22;;;2.02;;
22005;SDS011;11167;46.988;15.470;2023-04-10T05:26:00;2.40;;;2.20;;
22005;SDS011;11167;46.988;15.470;2023-04-10T05:28:01;2.42;;;2.22;;
22005;SDS011;11167;46.988;15.470;2023-04-10T05:30:02;2.65;;;2.40;;
22005;SDS011;11167;46.988;15.470;2023-04-10T05:32:03;2.52;;;2.27;;
22005;SDS011;11167;46.988;15.470;2023-04-10T05:34:04;2.42;;;2.22;;
22005;SDS011;11167;46.988;15.470;2023-04-10T05:36:06;2.50;;;2.30;;
22005;SDS011;11167;46.988;15.470;2023-04-10T05:38:07;2.90;;;2.20;;
22005;SDS011;11167;46.988;15.470;2023-04-10T05:40:09;2.15;;;1.95;;
22005;SDS011;11167;46.988;15.470;2023-04-10T05:42:10;2.10;;;1.90;;
22005;SDS011;11167;46.988;15.470;2023-04-10T05:44:11;2.47;;;1.92;;
22005;SDS011;11167;46.988;15.470;2023-04-10T05:46:12;1.77;;;1.67;;
22005;SDS011;11167;46.988;15.470;2023-04-10T05:48:13;1.60;;;1.50;;
22005;SDS011;11167;46.988;15.470;2023-04-10T05:50:14;1.40;;;1.30;;
22005;SDS011;11167;46.988;15.470;2023-04-10T05:52:15;2.00;;;1.80;;
22005;SDS011;11167;46.988;15.470;2023-04-10T05:54:16;1.98;;;1.52;;
22005;SDS011;11167;46.988;15.470;2023-04-10T05:56:17;1.40;;;1.30;;
22005;SDS011;11167;46.988;15.470;2023-04-10T05:58:18;1.40;;;1.30;;
22005;SDS011;11167;46.988;15.470;2023-04-10T06:00:19;1.60;;;1.50;;
22005;SDS011;11167;46.988;15.470;2023-04-10T06:02:20;1.67;;;1.57;;
22005;SDS011;11167;46.988;15.470;2023-04-10T06:04:21;1.82;;;1.55;;
22005;SDS011;11167;46.988;15.470;2023-04-10T06:06:22;1.70;;;1.60;;
22005;SDS011;11167;46.988;15.470;2023-04-10T06:08:25;1.80;;;1.70;;
22005;SDS011;11167;46.988;15.470;2023-04-10T06:10:29;2.27;;;1.90;;
22005;SDS011;11167;46.988;15.470;2023-04-10T06:12:30;1.70;;;1.60;;
22005;SDS011;11167;46.988;15.470;2023-04-10T06:14:31;1.85;;;1.60;;
22005;SDS011;11167;46.988;15.470;2023-04-10T06:16:32;2.10;;;1.90;;
22005;SDS011;11167;46.988;15.470;2023-04-10T06:18:33;2.52;;;2.22;;
22005;SDS011;11167;46.988;15.470;2023-04-10T06:20:35;3.02;;;2.47;;
22005;SDS011;11167;46.988;15.470;2023-04-10T06:22:36;2.52;;;2.30;;
22005;SDS011;11167;46.988;15.470;2023-04-10T06:24:37;3.30;;;2.60;;
22005;SDS011;11167;46.988;15.470;2023-04-10T06:26:38;2.98;;;2.60;;
22005;SDS011;11167;46.988;15.470;2023-04-10T06:28:39;2.77;;;2.45;;
22005;SDS011;11167;46.988;15.470;2023-04-10T06:30:41;3.60;;;2.70;;
22005;SDS011;11167;46.988;15.470;2023-04-10T06:32:42;3.00;;;2.58;;
22005;SDS011;11167;46.988;15.470;2023-04-10T06:34:44;3.70;;;2.85;;
22005;SDS011;11167;46.988;15.470;2023-04-10T06:36:45;3.55;;;3.00;;
22005;SDS011;11167;46.988;15.470;2023-04-10T06:38:46;4.70;;;3.27;;
22005;SDS011;11167;46.988;15.470;2023-04-10T06:40:47;3.42;;;2.90;;
22005;SDS011;11167;46.988;15.470;2023-04-10T06:42:48;3.92;;;3.25;;
22005;SDS011;11167;46.988;15.470;2023-04-10T06:44:50;3.47;;;3.02;;
22005;SDS011;11167;46.988;15.470;2023-04-10T06:46:51;3.75;;;3.02;;
22005;SDS011;11167;46.988;15.470;2023-04-10T06:48:52;3.30;;;3.00;;
22005;SDS011;11167;46.988;15.470;2023-04-10T06:50:53;3.65;;;3.10;;
22005;SDS011;11167;46.988;15.470;2023-04-10T06:52:54;3.72;;;3.27;;
22005;SDS011;11167;46.988;15.470;2023-04-10T06:54:57;4.25;;;3.33;;
22005;SDS011;11167;46.988;15.470;2023-04-10T06:56:58;3.92;;;3.47;;
22005;SDS011;11167;46.988;15.470;2023-04-10T06:58:59;3.85;;;3.40;;
22005;SDS011;11167;46.988;15.470;2023-04-10T07:01:00;5.22;;;3.55;;
22005;SDS011;11167;46.988;15.470;2023-04-10T07:03:03;4.40;;;3.55;;
22005;SDS011;11167;46.988;15.470;2023-04-10T07:05:04;4.40;;;3.52;;
22005;SDS011;11167;46.988;15.470;2023-04-10T07:07:05;4.22;;;3.42;;
22005;SDS011;11167;46.988;15.470;2023-04-10T07:09:08;4.62;;;3.87;;
22005;SDS011;11167;46.988;15.470;2023-04-10T07:11:09;4.28;;;3.55;;
22005;SDS011;11167;46.988;15.470;2023-04-10T07:13:10;4.10;;;3.60;;
22005;SDS011;11167;46.988;15.470;2023-04-10T07:15:12;4.28;;;3.47;;
22005;SDS011;11167;46.988;15.470;2023-04-10T07:17:12;4.25;;;3.58;;
22005;SDS011;11167;46.988;15.470;2023-04-10T07:19:14;4.90;;;3.70;;
22005;SDS011;11167;46.988;15.470;2023-04-10T07:21:15;5.40;;;3.90;;
22005;SDS011;11167;46.988;15.470;2023-04-10T07:23:16;5.45;;;4.17;;
22005;SDS011;11167;46.988;15.470;2023-04-10T07:25:19;4.37;;;3.85;;
22005;SDS011;11167;46.988;15.470;2023-04-10T07:27:20;4.65;;;3.75;;
22005;SDS011;11167;46.988;15.470;2023-04-10T07:29:22;4.78;;;3.70;;
22005;SDS011;11167;46.988;15.470;2023-04-10T07:31:23;5.00;;;4.00;;
22005;SDS011;11167;46.988;15.470;2023-04-10T07:33:24;4.42;;;3.72;;
22005;SDS011;11167;46.988;15.470;2023-04-10T07:35:26;5.12;;;4.10;;
22005;SDS011;11167;46.988;15.470;2023-04-10T07:37:28;4.20;;;3.77;;
22005;SDS011;11167;46.988;15.470;2023-04-10T07:39:30;4.45;;;3.87;;
22005;SDS011;11167;46.988;15.470;2023-04-10T07:41:31;4.97;;;3.77;;
22005;SDS011;11167;46.988;15.470;2023-04-10T07:43:32;5.30;;;3.77;;
22005;SDS011;11167;46.988;15.470;2023-04-10T07:45:33;4.87;;;3.90;;
22005;SDS011;11167;46.988;15.470;2023-04-10T07:47:34;4.60;;;3.75;;
22005;SDS011;11167;46.988;15.470;2023-04-10T07:49:35;4.10;;;3.70;;
22005;SDS011;11167;46.988;15.470;2023-04-10T07:51:36;4.45;;;3.50;;
22005;SDS011;11167;46.988;15.470;2023-04-10T07:53:38;4.87;;;3.55;;
22005;SDS011;11167;46.988;15.470;2023-04-10T07:55:41;4.97;;;3.85;;
22005;SDS011;11167;46.988;15.470;2023-04-10T07:57:44;4.30;;;3.47;;
22005;SDS011;11167;46.988;15.470;2023-04-10T07:59:46;4.70;;;3.55;;
22005;SDS011;11167;46.988;15.470;2023-04-10T08:01:47;4.15;;;3.62;;
22005;SDS011;11167;46.988;15.470;2023-04-10T08:03:49;4.45;;;3.40;;
22005;SDS011;11167;46.988;15.470;2023-04-10T08:05:50;4.25;;;3.55;;
22005;SDS011;11167;46.988;15.470;2023-04-10T08:07:51;4.35;;;3.65;;
22005;SDS011;11167;46.988;15.470;2023-04-10T08:09:52;4.45;;;3.70;;
22005;SDS011;11167;46.988;15.470;2023-04-10T08:11:53;4.22;;;3.40;;
22005;SDS011;11167;46.988;15.470;2023-04-10T08:13:57;4.78;;;3.80;;
22005;SDS011;11167;46.988;15.470;2023-04-10T08:16:01;5.62;;;3.72;;
22005;SDS011;11167;46.988;15.470;2023-04-10T08:18:02;5.97;;;3.70;;
22005;SDS011;11167;46.988;15.470;2023-04-10T08:20:03;9.20;;;3.70;;
22005;SDS011;11167;46.988;15.470;2023-04-10T08:22:06;6.55;;;3.80;;
22005;SDS011;11167;46.988;15.470;2023-04-10T08:24:07;4.90;;;3.90;;
22005;SDS011;11167;46.988;15.470;2023-04-10T08:26:08;4.85;;;3.77;;
22005;SDS011;11167;46.988;15.470;2023-04-10T08:28:09;5.33;;;3.80;;
22005;SDS011;11167;46.988;15.470;2023-04-10T08:30:10;5.25;;;3.98;;
22005;SDS011;11167;46.988;15.470;2023-04-10T08:32:12;5.20;;;4.17;;
22005;SDS011;11167;46.988;15.470;2023-04-10T08:34:13;4.83;;;4.00;;
22005;SDS011;11167;46.988;15.470;2023-04-10T08:36:14;5.17;;;3.75;;
22005;SDS011;11167;46.988;15.470;2023-04-10T08:38:16;4.90;;;3.87;;
22005;SDS011;11167;46.988;15.470;2023-04-10T08:40:17;4.78;;;3.80;;
22005;SDS011;11167;46.988;15.470;2023-04-10T08:42:18;4.67;;;4.08;;
22005;SDS011;11167;46.988;15.470;2023-04-10T08:44:19;5.95;;;4.30;;
22005;SDS011;11167;46.988;15.470;2023-04-10T08:46:21;5.35;;;4.45;;
22005;SDS011;11167;46.988;15.470;2023-04-10T08:48:24;5.60;;;4.70;;
22005;SDS011;11167;46.988;15.470;2023-04-10T08:50:29;6.00;;;4.50;;
22005;SDS011;11167;46.988;15.470;2023-04-10T08:52:33;4.62;;;4.10;;
22005;SDS011;11167;46.988;15.470;2023-04-10T08:54:38;4.72;;;4.15;;
22005;SDS011;11167;46.988;15.470;2023-04-10T08:56:41;4.30;;;3.70;;
22005;SDS011;11167;46.988;15.470;2023-04-10T08:58:44;4.25;;;3.85;;
22005;SDS011;11167;46.988;15.470;2023-04-10T09:00:46;4.20;;;3.52;;
22005;SDS011;11167;46.988;15.470;2023-04-10T09:02:48;4.67;;;4.05;;
22005;SDS011;11167;46.988;15.470;2023-04-10T09:04:51;4.60;;;4.10;;
22005;SDS011;11167;46.988;15.470;2023-04-10T09:06:54;4.55;;;3.98;;
22005;SDS011;11167;46.988;15.470;2023-04-10T09:08:55;4.67;;;3.90;;
22005;SDS011;11167;46.988;15.470;2023-04-10T09:10:58;5.22;;;4.00;;
22005;SDS011;11167;46.988;15.470;2023-04-10T09:12:59;4.97;;;4.15;;
22005;SDS011;11167;46.988;15.470;2023-04-10T09:15:00;4.58;;;3.80;;
22005;SDS011;11167;46.988;15.470;2023-04-10T09:17:15;5.30;;;4.20;;
22005;SDS011;11167;46.988;15.470;2023-04-10T09:19:30;5.15;;;4.10;;
22005;SDS011;11167;46.988;15.470;2023-04-10T09:21:32;5.20;;;4.33;;
22005;SDS011;11167;46.988;15.470;2023-04-10T09:23:33;4.30;;;3.77;;
22005;SDS011;11167;46.988;15.470;2023-04-10T09:25:35;4.80;;;4.20;;
22005;SDS011;11167;46.988;15.470;2023-04-10T09:27:38;4.42;;;3.95;;
22005;SDS011;11167;46.988;15.470;2023-04-10T09:29:43;4.67;;;3.90;;
22005;SDS011;11167;46.988;15.470;2023-04-10T09:31:45;5.08;;;4.45;;
22005;SDS011;11167;46.988;15.470;2023-04-10T09:33:47;5.12;;;4.28;;
22005;SDS011;11167;46.988;15.470;2023-04-10T09:35:48;5.58;;;4.05;;
22005;SDS011;11167;46.988;15.470;2023-04-10T09:37:50;4.72;;;3.83;;
22005;SDS011;11167;46.988;15.470;2023-04-10T09:39:51;5.80;;;4.00;;
22005;SDS011;11167;46.988;15.470;2023-04-10T09:41:52;4.72;;;4.00;;
22005;SDS011;11167;46.988;15.470;2023-04-10T09:44:08;5.70;;;4.08;;
22005;SDS011;11167;46.988;15.470;2023-04-10T09:46:10;4.67;;;3.77;;
22005;SDS011;11167;46.988;15.470;2023-04-10T09:48:12;5.05;;;4.15;;
22005;SDS011;11167;46.988;15.470;2023-04-10T09:50:13;4.90;;;4.22;;
22005;SDS011;11167;46.988;15.470;2023-04-10T09:52:25;4.80;;;4.22;;
22005;SDS011;11167;46.988;15.470;2023-04-10T09:54:34;5.33;;;3.95;;
22005;SDS011;11167;46.988;15.470;2023-04-10T09:56:38;4.53;;;4.05;;
22005;SDS011;11167;46.988;15.470;2023-04-10T09:58:39;5.92;;;4.15;;
22005;SDS011;11167;46.988;15.470;2023-04-10T10:00:41;4.62;;;4.10;;
22005;SDS011;11167;46.988;15.470;2023-04-10T10:02:44;5.40;;;4.45;;
22005;SDS011;11167;46.988;15.470;2023-04-10T10:04:45;5.97;;;4.37;;
22005;SDS011;11167;46.988;15.470;2023-04-10T10:06:47;4.10;;;3.67;;
22005;SDS011;11167;46.988;15.470;2023-04-10T10:08:50;5.35;;;4.42;;
22005;SDS011;11167;46.988;15.470;2023-04-10T10:10:55;5.62;;;4.37;;
22005;SDS011;11167;46.988;15.470;2023-04-10T10:12:59;4.80;;;4.22;;
22005;SDS011;11167;46.988;15.470;2023-04-10T10:17:28;5.15;;;4.35;;
22005;SDS011;11167;46.988;15.470;2023-04-10T10:19:41;5.22;;;4.20;;
22005;SDS011;11167;46.988;15.470;2023-04-10T10:21:47;4.60;;;4.10;;
22005;SDS011;11167;46.988;15.470;2023-04-10T10:23:50;4.22;;;3.83;;
22005;SDS011;11167;46.988;15.470;2023-04-10T10:25:54;5.10;;;4.20;;
22005;SDS011;11167;46.988;15.470;2023-04-10T10:27:58;4.78;;;4.25;;
22005;SDS011;11167;46.988;15.470;2023-04-10T10:30:02;4.70;;;4.05;;
22005;SDS011;11167;46.988;15.470;2023-04-10T10:32:05;4.80;;;4.28;;
22005;SDS011;11167;46.988;15.470;2023-04-10T10:34:08;4.55;;;4.15;;
22005;SDS011;11167;46.988;15.470;2023-04-10T10:36:09;5.35;;;4.42;;
22005;SDS011;11167;46.988;15.470;2023-04-10T10:38:13;4.40;;;4.00;;
22005;SDS011;11167;46.988;15.470;2023-04-10T10:40:18;4.65;;;4.00;;
22005;SDS011;11167;46.988;15.470;2023-04-10T10:44:48;5.70;;;4.70;;
22005;SDS011;11167;46.988;15.470;2023-04-10T10:47:07;5.25;;;4.70;;
22005;SDS011;11167;46.988;15.470;2023-04-10T10:49:11;5.17;;;4.42;;
22005;SDS011;11167;46.988;15.470;2023-04-10T10:51:12;6.12;;;4.67;;
22005;SDS011;11167;46.988;15.470;2023-04-10T10:53:29;5.72;;;4.28;;
22005;SDS011;11167;46.988;15.470;2023-04-10T10:55:36;4.33;;;3.92;;
22005;SDS011;11167;46.988;15.470;2023-04-10T10:59:55;5.58;;;4.28;;
22005;SDS011;11167;46.988;15.470;2023-04-10T11:02:15;4.17;;;3.77;;
22005;SDS011;11167;46.988;15.470;2023-04-10T11:06:48;4.95;;;4.42;;
22005;SDS011;11167;46.988;15.470;2023-04-10T11:08:51;5.50;;;4.10;;
22005;SDS011;11167;46.988;15.470;2023-04-10T11:11:00;5.30;;;4.35;;
22005;SDS011;11167;46.988;15.470;2023-04-10T11:13:14;5.00;;;4.37;;
22005;SDS011;11167;46.988;15.470;2023-04-10T11:15:23;5.33;;;3.95;;
22005;SDS011;11167;46.988;15.470;2023-04-10T11:19:57;4.12;;;3.70;;
22005;SDS011;11167;46.988;15.470;2023-04-10T11:22:05;4.55;;;3.92;;
22005;SDS011;11167;46.988;15.470;2023-04-10T11:24:08;4.30;;;3.85;;
22005;SDS011;11167;46.988;15.470;2023-04-10T11:26:09;4.85;;;4.15;;
22005;SDS011;11167;46.988;15.470;2023-04-10T11:28:18;4.33;;;3.75;;
22005;SDS011;11167;46.988;15.470;2023-04-10T11:30:34;4.92;;;4.08;;
22005;SDS011;11167;46.988;15.470;2023-04-10T11:32:41;5.15;;;4.30;;
22005;SDS011;11167;46.988;15.470;2023-04-10T11:34:44;4.78;;;4.28;;
22005;SDS011;11167;46.988;15.470;2023-04-10T11:36:45;5.45;;;4.53;;
22005;SDS011;11167;46.988;15.470;2023-04-10T11:41:02;4.70;;;4.15;;
22005;SDS011;11167;46.988;15.470;2023-04-10T11:43:15;5.78;;;4.62;;
22005;SDS011;11167;46.988;15.470;2023-04-10T11:45:27;5.10;;;4.60;;
22005;SDS011;11167;46.988;15.470;2023-04-10T11:47:26;5.08;;;4.58;;
22005;SDS011;11167;46.988;15.470;2023-04-10T11:49:30;5.45;;;4.90;;
22005;SDS011;11167;46.988;15.470;2023-04-10T11:51:32;5.75;;;4.85;;
22005;SDS011;11167;46.988;15.470;2023-04-10T11:53:35;4.80;;;4.30;;
22005;SDS011;11167;46.988;15.470;2023-04-10T11:55:36;5.35;;;4.20;;
22005;SDS011;11167;46.988;15.470;2023-04-10T11:57:38;5.00;;;4.50;;
22005;SDS011;11167;46.988;15.470;2023-04-10T11:59:39;5.62;;;4.85;;
22005;SDS011;11167;46.988;15.470;2023-04-10T12:01:40;6.20;;;5.00;;
22005;SDS011;11167;46.988;15.470;2023-04-10T12:03:42;5.40;;;4.70;;
22005;SDS011;11167;46.988;15.470;2023-04-10T12:05:44;5.67;;;4.97;;
22005;SDS011;11167;46.988;15.470;2023-04-10T12:07:47;5.40;;;4.87;;
22005;SDS011;11167;46.988;15.470;2023-04-10T12:09:56;5.85;;;5.25;;
22005;SDS011;11167;46.988;15.470;2023-04-10T12:11:58;6.12;;;5.00;;
22005;SDS011;11167;46.988;15.470;2023-04-10T12:14:00;5.83;;;4.97;;
22005;SDS011;11167;46.988;15.470;2023-04-10T12:16:08;5.58;;;5.03;;
22005;SDS011;11167;46.988;15.470;2023-04-10T12:18:10;5.83;;;5.20;;
22005;SDS011;11167;46.988;15.470;2023-04-10T12:20:13;5.90;;;5.12;;
22005;SDS011;11167;46.988;15.470;2023-04-10T12:22:15;6.15;;;5.20;;
22005;SDS011;11167;46.988;15.470;2023-04-10T12:26:47;6.35;;;5.50;;
22005;SDS011;11167;46.988;15.470;2023-04-10T12:28:50;5.80;;;4.95;;
22005;SDS011;11167;46.988;15.470;2023-04-10T12:30:53;6.80;;;5.28;;
22005;SDS011;11167;46.988;15.470;2023-04-10T12:32:54;5.42;;;4.90;;
22005;SDS011;11167;46.988;15.470;2023-04-10T12:34:57;5.90;;;5.10;;
22005;SDS011;11167;46.988;15.470;2023-04-10T12:37:00;6.53;;;5.50;;
22005;SDS011;11167;46.988;15.470;2023-04-10T12:39:02;6.47;;;5.20;;